sensor_id;sensor_type;location;lat;lon;timestamp;P1;durP1;ratioP1;P2;durP2;ratioP2
75820;SDS011;64454;51.984;9.838;2024-01-15T00:00:09;12.27;;;8.23;;
75820;SDS011;64454;51.984;9.838;2024-01-15T00:02:36;11.63;;;7.90;;
75820;SDS011;64454;51.984;9.838;2024-01-15T00:05:02;10.60;;;7.93;;
75820;SDS011;64454;51.984;9.838;2024-01-15T00:07:29;11.30;;;8.20;;
75820;SDS011;64454;51.984;9.838;2024-01-15T00:09:55;12.48;;;8.48;;
75820;SDS011;64454;51.984;9.838;2024-01-15T00:12:22;10.70;;;7.93;;
75820;SDS011;64454;51.984;9.838;2024-01-15T00:14:48;10.90;;;8.20;;
75820;SDS011;64454;51.984;9.838;2024-01-15T00:17:14;9.80;;;7.32;;
75820;SDS011;64454;51.984;9.838;2024-01-15T00:19:40;10.88;;;7.75;;
75820;SDS011;64454;51.984;9.838;2024-01-15T00:22:06;9.43;;;7.50;;
75820;SDS011;64454;51.984;9.838;2024-01-15T00:24:32;11.45;;;8.10;;
75820;SDS011;64454;51.984;9.838;2024-01-15T00:26:59;12.25;;;7.50;;
75820;SDS011;64454;51.984;9.838;2024-01-15T00:29:25;12.70;;;8.00;;
75820;SDS011;64454;51.984;9.838;2024-01-15T00:31:51;11.82;;;7.90;;
75820;SDS011;64454;51.984;9.838;2024-01-15T00:34:17;10.07;;;7.47;;
75820;SDS011;64454;51.984;9.838;2024-01-15T00:36:44;10.60;;;7.00;;
75820;SDS011;64454;51.984;9.838;2024-01-15T00:39:10;8.77;;;6.45;;
75820;SDS011;64454;51.984;9.838;2024-01-15T00:41:36;10.75;;;7.25;;
75820;SDS011;64454;51.984;9.838;2024-01-15T00:44:03;10.60;;;7.45;;
75820;SDS011;64454;51.984;9.838;2024-01-15T00:46:30;9.30;;;6.50;;
75820;SDS011;64454;51.984;9.838;2024-01-15T00:48:56;12.93;;;7.70;;
75820;SDS011;64454;51.984;9.838;2024-01-15T00:51:22;11.02;;;7.30;;
75820;SDS011;64454;51.984;9.838;2024-01-15T00:53:48;10.80;;;8.90;;
75820;SDS011;64454;51.984;9.838;2024-01-15T00:56:14;10.27;;;7.45;;
75820;SDS011;64454;51.984;9.838;2024-01-15T00:58:40;10.15;;;7.40;;
75820;SDS011;64454;51.984;9.838;2024-01-15T01:01:06;11.10;;;7.88;;
75820;SDS011;64454;51.984;9.838;2024-01-15T01:03:33;11.25;;;8.05;;
75820;SDS011;64454;51.984;9.838;2024-01-15T01:05:59;10.03;;;6.47;;
75820;SDS011;64454;51.984;9.838;2024-01-15T01:08:25;12.10;;;7.20;;
75820;SDS011;64454;51.984;9.838;2024-01-15T01:10:51;10.48;;;7.15;;
75820;SDS011;64454;51.984;9.838;2024-01-15T01:13:17;11.57;;;7.13;;
75820;SDS011;64454;51.984;9.838;2024-01-15T01:15:43;9.60;;;6.40;;
75820;SDS011;64454;51.984;9.838;2024-01-15T01:18:09;11.50;;;6.50;;
75820;SDS011;64454;51.984;9.838;2024-01-15T01:20:36;9.27;;;5.23;;
75820;SDS011;64454;51.984;9.838;2024-01-15T01:23:02;9.63;;;5.07;;
75820;SDS011;64454;51.984;9.838;2024-01-15T01:25:29;8.45;;;5.20;;
75820;SDS011;64454;51.984;9.838;2024-01-15T01:27:55;7.43;;;4.50;;
75820;SDS011;64454;51.984;9.838;2024-01-15T01:30:21;6.78;;;4.80;;
75820;SDS011;64454;51.984;9.838;2024-01-15T01:32:47;7.72;;;5.10;;
75820;SDS011;64454;51.984;9.838;2024-01-15T01:35:13;8.07;;;5.13;;
75820;SDS011;64454;51.984;9.838;2024-01-15T01:37:40;7.00;;;4.20;;
75820;SDS011;64454;51.984;9.838;2024-01-15T01:40:07;8.30;;;4.93;;
75820;SDS011;64454;51.984;9.838;2024-01-15T01:42:34;7.88;;;4.22;;
75820;SDS011;64454;51.984;9.838;2024-01-15T01:45:00;7.20;;;4.50;;
75820;SDS011;64454;51.984;9.838;2024-01-15T01:47:26;7.75;;;4.45;;
75820;SDS011;64454;51.984;9.838;2024-01-15T01:49:52;8.57;;;4.30;;
75820;SDS011;64454;51.984;9.838;2024-01-15T01:52:19;12.55;;;5.15;;
75820;SDS011;64454;51.984;9.838;2024-01-15T01:54:47;8.60;;;4.60;;
75820;SDS011;64454;51.984;9.838;2024-01-15T01:57:13;8.80;;;4.50;;
75820;SDS011;64454;51.984;9.838;2024-01-15T01:59:40;8.03;;;4.30;;
75820;SDS011;64454;51.984;9.838;2024-01-15T02:02:07;6.97;;;4.05;;
75820;SDS011;64454;51.984;9.838;2024-01-15T02:04:33;8.90;;;4.70;;
75820;SDS011;64454;51.984;9.838;2024-01-15T02:07:01;8.27;;;4.80;;
75820;SDS011;64454;51.984;9.838;2024-01-15T02:09:29;9.20;;;4.63;;
75820;SDS011;64454;51.984;9.838;2024-01-15T02:11:55;10.88;;;5.05;;
75820;SDS011;64454;51.984;9.838;2024-01-15T02:14:22;8.32;;;4.30;;
75820;SDS011;64454;51.984;9.838;2024-01-15T02:16:48;7.07;;;4.40;;
75820;SDS011;64454;51.984;9.838;2024-01-15T02:19:14;9.75;;;4.47;;
75820;SDS011;64454;51.984;9.838;2024-01-15T02:21:41;7.25;;;4.32;;
75820;SDS011;64454;51.984;9.838;2024-01-15T02:24:08;9.02;;;4.50;;
75820;SDS011;64454;51.984;9.838;2024-01-15T02:26:34;8.35;;;4.43;;
75820;SDS011;64454;51.984;9.838;2024-01-15T02:29:02;7.22;;;4.22;;
75820;SDS011;64454;51.984;9.838;2024-01-15T02:31:28;11.07;;;4.80;;
75820;SDS011;64454;51.984;9.838;2024-01-15T02:33:55;9.15;;;4.80;;
75820;SDS011;64454;51.984;9.838;2024-01-15T02:36:21;8.50;;;3.90;;
75820;SDS011;64454;51.984;9.838;2024-01-15T02:38:47;11.93;;;4.60;;
75820;SDS011;64454;51.984;9.838;2024-01-15T02:41:13;6.72;;;3.88;;
75820;SDS011;64454;51.984;9.838;2024-01-15T02:43:40;6.57;;;3.70;;
75820;SDS011;64454;51.984;9.838;2024-01-15T02:46:06;6.85;;;3.72;;
75820;SDS011;64454;51.984;9.838;2024-01-15T02:48:32;6.53;;;3.65;;
75820;SDS011;64454;51.984;9.838;2024-01-15T02:50:59;6.78;;;3.60;;
75820;SDS011;64454;51.984;9.838;2024-01-15T02:53:26;10.35;;;4.20;;
75820;SDS011;64454;51.984;9.838;2024-01-15T02:55:52;8.80;;;4.20;;
75820;SDS011;64454;51.984;9.838;2024-01-15T02:58:18;8.85;;;4.00;;
75820;SDS011;64454;51.984;9.838;2024-01-15T03:00:45;8.77;;;3.90;;
75820;SDS011;64454;51.984;9.838;2024-01-15T03:03:11;12.27;;;4.90;;
75820;SDS011;64454;51.984;9.838;2024-01-15T03:05:37;8.40;;;4.40;;
75820;SDS011;64454;51.984;9.838;2024-01-15T03:08:03;5.57;;;3.05;;
75820;SDS011;64454;51.984;9.838;2024-01-15T03:10:30;8.60;;;3.40;;
75820;SDS011;64454;51.984;9.838;2024-01-15T03:12:57;8.65;;;3.70;;
75820;SDS011;64454;51.984;9.838;2024-01-15T03:15:23;10.77;;;3.00;;
75820;SDS011;64454;51.984;9.838;2024-01-15T03:17:49;7.82;;;3.35;;
75820;SDS011;64454;51.984;9.838;2024-01-15T03:20:16;7.00;;;3.22;;
75820;SDS011;64454;51.984;9.838;2024-01-15T03:22:42;8.13;;;2.92;;
75820;SDS011;64454;51.984;9.838;2024-01-15T03:25:08;8.05;;;2.50;;
75820;SDS011;64454;51.984;9.838;2024-01-15T03:27:34;9.07;;;3.00;;
75820;SDS011;64454;51.984;9.838;2024-01-15T03:30:00;7.78;;;3.30;;
75820;SDS011;64454;51.984;9.838;2024-01-15T03:32:28;8.52;;;3.10;;
75820;SDS011;64454;51.984;9.838;2024-01-15T03:34:54;8.30;;;3.90;;
75820;SDS011;64454;51.984;9.838;2024-01-15T03:37:20;7.90;;;3.30;;
75820;SDS011;64454;51.984;9.838;2024-01-15T03:39:46;5.10;;;2.55;;
75820;SDS011;64454;51.984;9.838;2024-01-15T03:42:12;7.30;;;3.70;;
75820;SDS011;64454;51.984;9.838;2024-01-15T03:44:39;7.88;;;3.40;;
75820;SDS011;64454;51.984;9.838;2024-01-15T03:47:05;5.28;;;2.70;;
75820;SDS011;64454;51.984;9.838;2024-01-15T03:49:32;4.72;;;3.00;;
75820;SDS011;64454;51.984;9.838;2024-01-15T03:51:58;4.85;;;3.10;;
75820;SDS011;64454;51.984;9.838;2024-01-15T03:54:24;8.60;;;2.85;;
75820;SDS011;64454;51.984;9.838;2024-01-15T03:56:50;6.75;;;3.13;;
75820;SDS011;64454;51.984;9.838;2024-01-15T03:59:16;6.43;;;2.80;;
75820;SDS011;64454;51.984;9.838;2024-01-15T04:01:47;9.73;;;3.08;;
75820;SDS011;64454;51.984;9.838;2024-01-15T04:04:15;7.10;;;3.30;;
75820;SDS011;64454;51.984;9.838;2024-01-15T04:06:41;7.30;;;3.10;;
75820;SDS011;64454;51.984;9.838;2024-01-15T04:09:08;9.15;;;3.70;;
75820;SDS011;64454;51.984;9.838;2024-01-15T04:11:34;9.77;;;3.45;;
75820;SDS011;64454;51.984;9.838;2024-01-15T04:14:00;11.93;;;3.80;;
75820;SDS011;64454;51.984;9.838;2024-01-15T04:16:26;8.40;;;3.22;;
75820;SDS011;64454;51.984;9.838;2024-01-15T04:18:52;4.30;;;2.80;;
75820;SDS011;64454;51.984;9.838;2024-01-15T04:21:18;6.82;;;3.20;;
75820;SDS011;64454;51.984;9.838;2024-01-15T04:23:45;8.30;;;3.38;;
75820;SDS011;64454;51.984;9.838;2024-01-15T04:26:11;6.47;;;3.35;;
75820;SDS011;64454;51.984;9.838;2024-01-15T04:28:37;5.70;;;3.85;;
75820;SDS011;64454;51.984;9.838;2024-01-15T04:31:03;7.35;;;3.35;;
75820;SDS011;64454;51.984;9.838;2024-01-15T04:33:29;8.35;;;3.60;;
75820;SDS011;64454;51.984;9.838;2024-01-15T04:35:55;9.27;;;3.88;;
75820;SDS011;64454;51.984;9.838;2024-01-15T04:38:21;10.10;;;3.40;;
75820;SDS011;64454;51.984;9.838;2024-01-15T04:40:48;5.82;;;3.28;;
75820;SDS011;64454;51.984;9.838;2024-01-15T04:43:14;8.93;;;2.90;;
75820;SDS011;64454;51.984;9.838;2024-01-15T04:45:40;8.07;;;4.40;;
75820;SDS011;64454;51.984;9.838;2024-01-15T04:48:06;7.82;;;3.72;;
75820;SDS011;64454;51.984;9.838;2024-01-15T04:50:32;6.72;;;3.20;;
75820;SDS011;64454;51.984;9.838;2024-01-15T04:52:58;8.23;;;3.40;;
75820;SDS011;64454;51.984;9.838;2024-01-15T04:55:24;8.88;;;3.50;;
75820;SDS011;64454;51.984;9.838;2024-01-15T04:57:51;5.63;;;2.70;;
75820;SDS011;64454;51.984;9.838;2024-01-15T05:00:17;7.93;;;3.42;;
75820;SDS011;64454;51.984;9.838;2024-01-15T05:02:44;4.80;;;3.40;;
75820;SDS011;64454;51.984;9.838;2024-01-15T05:05:10;7.70;;;3.70;;
75820;SDS011;64454;51.984;9.838;2024-01-15T05:07:36;5.80;;;3.20;;
75820;SDS011;64454;51.984;9.838;2024-01-15T05:10:02;5.43;;;3.83;;
75820;SDS011;64454;51.984;9.838;2024-01-15T05:12:29;7.80;;;4.10;;
75820;SDS011;64454;51.984;9.838;2024-01-15T05:14:56;7.03;;;3.70;;
75820;SDS011;64454;51.984;9.838;2024-01-15T05:17:22;9.80;;;3.80;;
75820;SDS011;64454;51.984;9.838;2024-01-15T05:19:48;11.15;;;3.83;;
75820;SDS011;64454;51.984;9.838;2024-01-15T05:22:14;9.70;;;4.40;;
75820;SDS011;64454;51.984;9.838;2024-01-15T05:24:40;8.23;;;5.10;;
75820;SDS011;64454;51.984;9.838;2024-01-15T05:27:06;6.50;;;4.30;;
75820;SDS011;64454;51.984;9.838;2024-01-15T05:29:32;7.40;;;3.97;;
75820;SDS011;64454;51.984;9.838;2024-01-15T05:31:59;6.47;;;3.40;;
75820;SDS011;64454;51.984;9.838;2024-01-15T05:34:25;9.43;;;4.40;;
75820;SDS011;64454;51.984;9.838;2024-01-15T05:36:51;7.35;;;4.43;;
75820;SDS011;64454;51.984;9.838;2024-01-15T05:39:18;7.70;;;4.20;;
75820;SDS011;64454;51.984;9.838;2024-01-15T05:41:44;6.88;;;4.40;;
75820;SDS011;64454;51.984;9.838;2024-01-15T05:44:10;11.35;;;4.90;;
75820;SDS011;64454;51.984;9.838;2024-01-15T05:46:36;9.70;;;3.55;;
75820;SDS011;64454;51.984;9.838;2024-01-15T05:49:03;9.82;;;4.30;;
75820;SDS011;64454;51.984;9.838;2024-01-15T05:51:29;10.38;;;3.88;;
75820;SDS011;64454;51.984;9.838;2024-01-15T05:53:55;8.45;;;4.30;;
75820;SDS011;64454;51.984;9.838;2024-01-15T05:56:21;8.75;;;3.97;;
75820;SDS011;64454;51.984;9.838;2024-01-15T05:58:49;8.38;;;3.65;;
75820;SDS011;64454;51.984;9.838;2024-01-15T06:01:15;9.80;;;3.65;;
75820;SDS011;64454;51.984;9.838;2024-01-15T06:03:41;11.70;;;4.20;;
75820;SDS011;64454;51.984;9.838;2024-01-15T06:06:08;10.10;;;4.32;;
75820;SDS011;64454;51.984;9.838;2024-01-15T06:08:35;9.80;;;3.38;;
75820;SDS011;64454;51.984;9.838;2024-01-15T06:11:01;12.77;;;4.53;;
75820;SDS011;64454;51.984;9.838;2024-01-15T06:13:28;10.20;;;4.28;;
75820;SDS011;64454;51.984;9.838;2024-01-15T06:15:54;9.05;;;4.25;;
75820;SDS011;64454;51.984;9.838;2024-01-15T06:18:20;10.05;;;4.55;;
75820;SDS011;64454;51.984;9.838;2024-01-15T06:20:46;11.15;;;5.18;;
75820;SDS011;64454;51.984;9.838;2024-01-15T06:23:13;5.95;;;3.20;;
75820;SDS011;64454;51.984;9.838;2024-01-15T06:25:39;8.45;;;3.78;;
75820;SDS011;64454;51.984;9.838;2024-01-15T06:28:05;9.80;;;4.00;;
75820;SDS011;64454;51.984;9.838;2024-01-15T06:30:31;7.67;;;3.20;;
75820;SDS011;64454;51.984;9.838;2024-01-15T06:32:57;9.38;;;4.05;;
75820;SDS011;64454;51.984;9.838;2024-01-15T06:35:23;14.32;;;4.18;;
75820;SDS011;64454;51.984;9.838;2024-01-15T06:37:49;8.17;;;4.17;;
75820;SDS011;64454;51.984;9.838;2024-01-15T06:40:16;6.93;;;3.53;;
75820;SDS011;64454;51.984;9.838;2024-01-15T06:42:42;6.82;;;3.70;;
75820;SDS011;64454;51.984;9.838;2024-01-15T06:45:08;7.50;;;3.40;;
75820;SDS011;64454;51.984;9.838;2024-01-15T06:47:34;7.22;;;3.22;;
75820;SDS011;64454;51.984;9.838;2024-01-15T06:50:01;11.90;;;3.60;;
75820;SDS011;64454;51.984;9.838;2024-01-15T06:52:27;10.47;;;3.57;;
75820;SDS011;64454;51.984;9.838;2024-01-15T06:54:53;6.03;;;3.50;;
75820;SDS011;64454;51.984;9.838;2024-01-15T06:57:20;6.05;;;3.70;;
75820;SDS011;64454;51.984;9.838;2024-01-15T06:59:46;9.10;;;3.72;;
75820;SDS011;64454;51.984;9.838;2024-01-15T07:02:12;5.97;;;3.30;;
75820;SDS011;64454;51.984;9.838;2024-01-15T07:04:38;6.45;;;3.35;;
75820;SDS011;64454;51.984;9.838;2024-01-15T07:07:04;5.45;;;3.53;;
75820;SDS011;64454;51.984;9.838;2024-01-15T07:09:30;6.25;;;3.50;;
75820;SDS011;64454;51.984;9.838;2024-01-15T07:11:56;10.52;;;3.85;;
75820;SDS011;64454;51.984;9.838;2024-01-15T07:14:23;5.38;;;3.55;;
75820;SDS011;64454;51.984;9.838;2024-01-15T07:16:49;6.38;;;3.50;;
75820;SDS011;64454;51.984;9.838;2024-01-15T07:19:15;6.80;;;3.15;;
75820;SDS011;64454;51.984;9.838;2024-01-15T07:21:42;5.80;;;2.90;;
75820;SDS011;64454;51.984;9.838;2024-01-15T07:24:08;4.38;;;2.50;;
75820;SDS011;64454;51.984;9.838;2024-01-15T07:26:35;7.50;;;3.90;;
75820;SDS011;64454;51.984;9.838;2024-01-15T07:29:01;7.97;;;4.35;;
75820;SDS011;64454;51.984;9.838;2024-01-15T07:31:29;5.35;;;3.20;;
75820;SDS011;64454;51.984;9.838;2024-01-15T07:33:55;7.10;;;2.78;;
75820;SDS011;64454;51.984;9.838;2024-01-15T07:36:21;5.32;;;2.63;;
75820;SDS011;64454;51.984;9.838;2024-01-15T07:38:47;6.45;;;2.70;;
75820;SDS011;64454;51.984;9.838;2024-01-15T07:41:13;7.00;;;3.00;;
75820;SDS011;64454;51.984;9.838;2024-01-15T07:43:39;4.93;;;3.30;;
75820;SDS011;64454;51.984;9.838;2024-01-15T07:46:05;5.30;;;3.00;;
75820;SDS011;64454;51.984;9.838;2024-01-15T07:48:32;7.27;;;3.70;;
75820;SDS011;64454;51.984;9.838;2024-01-15T07:50:59;6.93;;;3.55;;
75820;SDS011;64454;51.984;9.838;2024-01-15T07:53:25;6.75;;;3.95;;
75820;SDS011;64454;51.984;9.838;2024-01-15T07:55:51;6.28;;;3.30;;
75820;SDS011;64454;51.984;9.838;2024-01-15T07:58:17;6.13;;;4.00;;
75820;SDS011;64454;51.984;9.838;2024-01-15T08:00:44;4.95;;;3.10;;
75820;SDS011;64454;51.984;9.838;2024-01-15T08:03:10;5.15;;;2.90;;
75820;SDS011;64454;51.984;9.838;2024-01-15T08:05:37;4.57;;;2.92;;
75820;SDS011;64454;51.984;9.838;2024-01-15T08:08:04;5.97;;;3.20;;
75820;SDS011;64454;51.984;9.838;2024-01-15T08:10:30;8.00;;;3.20;;
75820;SDS011;64454;51.984;9.838;2024-01-15T08:12:57;4.93;;;2.72;;
75820;SDS011;64454;51.984;9.838;2024-01-15T08:15:23;5.40;;;2.90;;
75820;SDS011;64454;51.984;9.838;2024-01-15T08:17:49;5.10;;;2.80;;
75820;SDS011;64454;51.984;9.838;2024-01-15T08:20:15;4.85;;;2.58;;
75820;SDS011;64454;51.984;9.838;2024-01-15T08:22:42;6.68;;;3.00;;
75820;SDS011;64454;51.984;9.838;2024-01-15T08:25:08;4.53;;;2.70;;
75820;SDS011;64454;51.984;9.838;2024-01-15T08:27:34;5.18;;;2.90;;
75820;SDS011;64454;51.984;9.838;2024-01-15T08:30:00;5.25;;;2.97;;
75820;SDS011;64454;51.984;9.838;2024-01-15T08:32:27;5.22;;;3.20;;
75820;SDS011;64454;51.984;9.838;2024-01-15T08:34:53;9.25;;;3.95;;
75820;SDS011;64454;51.984;9.838;2024-01-15T08:37:19;6.90;;;3.67;;
75820;SDS011;64454;51.984;9.838;2024-01-15T08:39:46;7.35;;;3.50;;
75820;SDS011;64454;51.984;9.838;2024-01-15T08:42:12;7.20;;;3.50;;
75820;SDS011;64454;51.984;9.838;2024-01-15T08:44:38;5.90;;;3.30;;
75820;SDS011;64454;51.984;9.838;2024-01-15T08:47:05;8.07;;;3.70;;
75820;SDS011;64454;51.984;9.838;2024-01-15T08:49:31;4.35;;;2.58;;
75820;SDS011;64454;51.984;9.838;2024-01-15T08:51:58;4.13;;;2.10;;
75820;SDS011;64454;51.984;9.838;2024-01-15T08:54:24;3.10;;;2.33;;
75820;SDS011;64454;51.984;9.838;2024-01-15T08:56:51;5.00;;;2.80;;
75820;SDS011;64454;51.984;9.838;2024-01-15T08:59:17;3.10;;;1.80;;
75820;SDS011;64454;51.984;9.838;2024-01-15T09:01:49;4.35;;;2.42;;
75820;SDS011;64454;51.984;9.838;2024-01-15T09:04:15;5.20;;;2.60;;
75820;SDS011;64454;51.984;9.838;2024-01-15T09:06:42;5.60;;;3.20;;
75820;SDS011;64454;51.984;9.838;2024-01-15T09:09:10;6.40;;;2.97;;
75820;SDS011;64454;51.984;9.838;2024-01-15T09:11:36;3.88;;;2.20;;
75820;SDS011;64454;51.984;9.838;2024-01-15T09:14:03;4.80;;;2.30;;
75820;SDS011;64454;51.984;9.838;2024-01-15T09:16:29;3.17;;;2.20;;
75820;SDS011;64454;51.984;9.838;2024-01-15T09:18:55;6.13;;;2.70;;
75820;SDS011;64454;51.984;9.838;2024-01-15T09:21:22;3.60;;;2.47;;
75820;SDS011;64454;51.984;9.838;2024-01-15T09:23:49;4.72;;;2.47;;
75820;SDS011;64454;51.984;9.838;2024-01-15T09:26:15;3.85;;;2.60;;
75820;SDS011;64454;51.984;9.838;2024-01-15T09:28:41;5.83;;;2.93;;
75820;SDS011;64454;51.984;9.838;2024-01-15T09:31:08;5.70;;;2.50;;
75820;SDS011;64454;51.984;9.838;2024-01-15T09:33:34;4.65;;;2.50;;
75820;SDS011;64454;51.984;9.838;2024-01-15T09:36:01;5.40;;;2.70;;
75820;SDS011;64454;51.984;9.838;2024-01-15T09:38:28;5.30;;;2.10;;
75820;SDS011;64454;51.984;9.838;2024-01-15T09:40:55;4.90;;;2.47;;
75820;SDS011;64454;51.984;9.838;2024-01-15T09:43:21;3.35;;;1.85;;
75820;SDS011;64454;51.984;9.838;2024-01-15T09:45:48;3.70;;;2.25;;
75820;SDS011;64454;51.984;9.838;2024-01-15T09:48:16;5.78;;;2.38;;
75820;SDS011;64454;51.984;9.838;2024-01-15T09:50:43;4.47;;;2.20;;
75820;SDS011;64454;51.984;9.838;2024-01-15T09:53:09;2.95;;;2.10;;
75820;SDS011;64454;51.984;9.838;2024-01-15T09:55:37;3.20;;;2.00;;
75820;SDS011;64454;51.984;9.838;2024-01-15T09:58:03;3.95;;;1.90;;
75820;SDS011;64454;51.984;9.838;2024-01-15T10:00:29;6.90;;;2.08;;
75820;SDS011;64454;51.984;9.838;2024-01-15T10:02:56;4.13;;;1.90;;
75820;SDS011;64454;51.984;9.838;2024-01-15T10:05:23;2.92;;;1.70;;
75820;SDS011;64454;51.984;9.838;2024-01-15T10:07:49;5.70;;;1.67;;
75820;SDS011;64454;51.984;9.838;2024-01-15T10:10:18;4.47;;;2.40;;
75820;SDS011;64454;51.984;9.838;2024-01-15T10:12:44;3.00;;;1.60;;
75820;SDS011;64454;51.984;9.838;2024-01-15T10:15:11;3.70;;;1.90;;
75820;SDS011;64454;51.984;9.838;2024-01-15T10:17:38;3.30;;;2.22;;
75820;SDS011;64454;51.984;9.838;2024-01-15T10:20:07;4.50;;;1.90;;
75820;SDS011;64454;51.984;9.838;2024-01-15T10:22:37;2.67;;;1.50;;
75820;SDS011;64454;51.984;9.838;2024-01-15T10:25:09;2.88;;;1.60;;
75820;SDS011;64454;51.984;9.838;2024-01-15T10:27:36;2.20;;;1.40;;
75820;SDS011;64454;51.984;9.838;2024-01-15T10:30:03;1.85;;;1.48;;
75820;SDS011;64454;51.984;9.838;2024-01-15T10:32:31;2.80;;;1.25;;
75820;SDS011;64454;51.984;9.838;2024-01-15T10:34:57;1.92;;;1.40;;
75820;SDS011;64454;51.984;9.838;2024-01-15T10:37:23;1.75;;;1.30;;
75820;SDS011;64454;51.984;9.838;2024-01-15T10:39:50;2.60;;;1.20;;
75820;SDS011;64454;51.984;9.838;2024-01-15T10:42:17;2.47;;;1.33;;
75820;SDS011;64454;51.984;9.838;2024-01-15T10:44:43;2.10;;;1.40;;
75820;SDS011;64454;51.984;9.838;2024-01-15T10:47:11;1.50;;;1.20;;
75820;SDS011;64454;51.984;9.838;2024-01-15T10:49:38;2.40;;;1.20;;
75820;SDS011;64454;51.984;9.838;2024-01-15T10:52:05;3.58;;;1.55;;
75820;SDS011;64454;51.984;9.838;2024-01-15T10:54:31;3.35;;;1.55;;
75820;SDS011;64454;51.984;9.838;2024-01-15T10:56:59;3.60;;;1.70;;
75820;SDS011;64454;51.984;9.838;2024-01-15T10:59:28;1.50;;;1.10;;
75820;SDS011;64454;51.984;9.838;2024-01-15T11:01:54;2.85;;;1.30;;
75820;SDS011;64454;51.984;9.838;2024-01-15T11:04:21;4.00;;;1.40;;
75820;SDS011;64454;51.984;9.838;2024-01-15T11:06:50;10.75;;;5.85;;
75820;SDS011;64454;51.984;9.838;2024-01-15T11:09:18;35.35;;;19.92;;
75820;SDS011;64454;51.984;9.838;2024-01-15T11:11:45;81.63;;;40.57;;
75820;SDS011;64454;51.984;9.838;2024-01-15T11:17:04;9.75;;;7.00;;
75820;SDS011;64454;51.984;9.838;2024-01-15T11:19:35;3.85;;;1.70;;
75820;SDS011;64454;51.984;9.838;2024-01-15T11:22:03;2.88;;;2.00;;
75820;SDS011;64454;51.984;9.838;2024-01-15T11:24:37;2.88;;;1.60;;
75820;SDS011;64454;51.984;9.838;2024-01-15T11:27:05;6.40;;;2.40;;
75820;SDS011;64454;51.984;9.838;2024-01-15T11:29:32;2.88;;;1.70;;
75820;SDS011;64454;51.984;9.838;2024-01-15T11:32:07;3.60;;;1.90;;
75820;SDS011;64454;51.984;9.838;2024-01-15T11:37:23;6.20;;;2.00;;
75820;SDS011;64454;51.984;9.838;2024-01-15T11:39:52;4.82;;;2.67;;
75820;SDS011;64454;51.984;9.838;2024-01-15T11:42:20;7.60;;;3.25;;
75820;SDS011;64454;51.984;9.838;2024-01-15T11:44:48;4.13;;;2.38;;
75820;SDS011;64454;51.984;9.838;2024-01-15T11:47:14;3.90;;;2.15;;
75820;SDS011;64454;51.984;9.838;2024-01-15T11:49:59;7.07;;;2.13;;
75820;SDS011;64454;51.984;9.838;2024-01-15T11:52:26;3.90;;;2.10;;
75820;SDS011;64454;51.984;9.838;2024-01-15T11:55:14;8.65;;;3.83;;
75820;SDS011;64454;51.984;9.838;2024-01-15T11:57:47;3.90;;;2.80;;
75820;SDS011;64454;51.984;9.838;2024-01-15T12:00:17;4.60;;;1.90;;
75820;SDS011;64454;51.984;9.838;2024-01-15T12:02:44;3.72;;;1.80;;
75820;SDS011;64454;51.984;9.838;2024-01-15T12:05:12;5.10;;;2.33;;
75820;SDS011;64454;51.984;9.838;2024-01-15T12:07:40;4.88;;;2.70;;
75820;SDS011;64454;51.984;9.838;2024-01-15T12:10:08;3.53;;;2.53;;
75820;SDS011;64454;51.984;9.838;2024-01-15T12:12:39;4.85;;;1.90;;
75820;SDS011;64454;51.984;9.838;2024-01-15T12:15:21;4.95;;;2.28;;
75820;SDS011;64454;51.984;9.838;2024-01-15T12:17:47;6.45;;;2.00;;
75820;SDS011;64454;51.984;9.838;2024-01-15T12:20:14;4.95;;;1.80;;
75820;SDS011;64454;51.984;9.838;2024-01-15T12:22:41;4.95;;;2.10;;
75820;SDS011;64454;51.984;9.838;2024-01-15T12:25:08;11.90;;;2.17;;
75820;SDS011;64454;51.984;9.838;2024-01-15T12:27:34;9.93;;;3.13;;
75820;SDS011;64454;51.984;9.838;2024-01-15T12:30:01;4.50;;;1.98;;
75820;SDS011;64454;51.984;9.838;2024-01-15T12:32:28;3.20;;;2.30;;
75820;SDS011;64454;51.984;9.838;2024-01-15T12:34:55;4.83;;;2.00;;
75820;SDS011;64454;51.984;9.838;2024-01-15T12:37:21;3.80;;;2.22;;
75820;SDS011;64454;51.984;9.838;2024-01-15T12:39:47;3.60;;;1.50;;
75820;SDS011;64454;51.984;9.838;2024-01-15T12:42:13;6.95;;;2.72;;
75820;SDS011;64454;51.984;9.838;2024-01-15T12:44:40;4.10;;;1.80;;
75820;SDS011;64454;51.984;9.838;2024-01-15T12:47:06;10.82;;;2.20;;
75820;SDS011;64454;51.984;9.838;2024-01-15T12:49:33;3.65;;;1.60;;
75820;SDS011;64454;51.984;9.838;2024-01-15T12:52:02;6.93;;;2.17;;
75820;SDS011;64454;51.984;9.838;2024-01-15T12:54:28;8.37;;;2.50;;
75820;SDS011;64454;51.984;9.838;2024-01-15T12:56:55;4.45;;;1.70;;
75820;SDS011;64454;51.984;9.838;2024-01-15T12:59:21;5.75;;;2.20;;
75820;SDS011;64454;51.984;9.838;2024-01-15T13:01:47;3.03;;;1.77;;
75820;SDS011;64454;51.984;9.838;2024-01-15T13:04:20;3.40;;;2.03;;
75820;SDS011;64454;51.984;9.838;2024-01-15T13:06:48;5.90;;;2.45;;
75820;SDS011;64454;51.984;9.838;2024-01-15T13:09:14;4.05;;;2.10;;
75820;SDS011;64454;51.984;9.838;2024-01-15T13:11:40;3.13;;;2.10;;
75820;SDS011;64454;51.984;9.838;2024-01-15T13:14:07;4.70;;;2.20;;
75820;SDS011;64454;51.984;9.838;2024-01-15T13:16:33;4.38;;;2.10;;
75820;SDS011;64454;51.984;9.838;2024-01-15T13:18:59;4.25;;;1.50;;
75820;SDS011;64454;51.984;9.838;2024-01-15T13:21:25;4.28;;;1.98;;
75820;SDS011;64454;51.984;9.838;2024-01-15T13:23:52;2.42;;;1.40;;
75820;SDS011;64454;51.984;9.838;2024-01-15T13:26:18;3.63;;;1.63;;
75820;SDS011;64454;51.984;9.838;2024-01-15T13:28:44;5.65;;;1.58;;
75820;SDS011;64454;51.984;9.838;2024-01-15T13:31:10;6.47;;;2.47;;
75820;SDS011;64454;51.984;9.838;2024-01-15T13:33:36;7.00;;;2.00;;
75820;SDS011;64454;51.984;9.838;2024-01-15T13:36:04;3.15;;;1.50;;
75820;SDS011;64454;51.984;9.838;2024-01-15T13:38:33;4.45;;;2.00;;
75820;SDS011;64454;51.984;9.838;2024-01-15T13:41:02;4.65;;;2.65;;
75820;SDS011;64454;51.984;9.838;2024-01-15T13:43:29;4.75;;;2.22;;
75820;SDS011;64454;51.984;9.838;2024-01-15T13:45:55;4.55;;;2.28;;
75820;SDS011;64454;51.984;9.838;2024-01-15T13:48:21;3.93;;;2.30;;
75820;SDS011;64454;51.984;9.838;2024-01-15T13:50:47;2.63;;;1.50;;
75820;SDS011;64454;51.984;9.838;2024-01-15T13:53:15;5.00;;;2.13;;
75820;SDS011;64454;51.984;9.838;2024-01-15T13:55:41;2.88;;;1.70;;
75820;SDS011;64454;51.984;9.838;2024-01-15T13:58:08;2.95;;;1.90;;
75820;SDS011;64454;51.984;9.838;2024-01-15T14:00:34;2.03;;;1.83;;
75820;SDS011;64454;51.984;9.838;2024-01-15T14:03:01;3.90;;;2.00;;
75820;SDS011;64454;51.984;9.838;2024-01-15T14:05:27;6.57;;;2.63;;
75820;SDS011;64454;51.984;9.838;2024-01-15T14:07:53;3.72;;;2.00;;
75820;SDS011;64454;51.984;9.838;2024-01-15T14:10:19;5.53;;;2.50;;
75820;SDS011;64454;51.984;9.838;2024-01-15T14:12:45;8.57;;;3.30;;
75820;SDS011;64454;51.984;9.838;2024-01-15T14:15:12;6.28;;;2.47;;
75820;SDS011;64454;51.984;9.838;2024-01-15T14:17:38;6.32;;;2.45;;
75820;SDS011;64454;51.984;9.838;2024-01-15T14:20:05;4.35;;;2.10;;
75820;SDS011;64454;51.984;9.838;2024-01-15T14:22:34;2.95;;;1.70;;
75820;SDS011;64454;51.984;9.838;2024-01-15T14:25:00;2.42;;;1.60;;
75820;SDS011;64454;51.984;9.838;2024-01-15T14:27:26;4.30;;;1.70;;
75820;SDS011;64454;51.984;9.838;2024-01-15T14:29:52;3.38;;;1.60;;
75820;SDS011;64454;51.984;9.838;2024-01-15T14:32:19;5.45;;;1.90;;
75820;SDS011;64454;51.984;9.838;2024-01-15T14:34:45;3.67;;;1.88;;
75820;SDS011;64454;51.984;9.838;2024-01-15T14:37:11;3.70;;;1.80;;
75820;SDS011;64454;51.984;9.838;2024-01-15T14:39:37;3.60;;;1.70;;
75820;SDS011;64454;51.984;9.838;2024-01-15T14:42:04;2.88;;;1.20;;
75820;SDS011;64454;51.984;9.838;2024-01-15T14:44:30;2.30;;;1.50;;
75820;SDS011;64454;51.984;9.838;2024-01-15T14:46:58;3.22;;;1.75;;